메인 페이지
METAR-TAF:

METAR-TAF

공항 :

Tupelo Regional Airport (C.D. Lemons Field)

투펄로, 미시시피, 미국

위도: 34-16-05N, 경도: 088-46-12W, 고도: 106m

현재 날씨관측

예보는 31분 전, 00:53시(UTC)에 발표되었습니다.
북북서3kt
온도 7°C
습도 57%
기압 1020 hPa
시정: 16.1km
맑음

METAR: KTUP 170053Z 34003KT 10SM CLR 07/M01 A3012 RMK AO2 SLP201 T00721006 $

시각: 19:24 (01:24 UTC)

예보

예보는 1 시간 55분 전, 23:29시(UTC)에 발표되었습니다.
예보 대상 시간: 17일 00시부터 17일 24시까지 (UTC)
여러 방향의 바람 3kt
시정: 10km
맑음
17일 1700시부터 (UTC)
서남서5kt
시정: 10km
맑음

TAF: KTUP 162329Z 1700/1724 VRB03KT P6SM SKC FM171700 24005KT P6SM SKC

4,000개 이상의 공항 관측 자료 및 예보 (METAR 및 TAF 보고).

지도상에서 검색 가능한 기상관측소가 노란 점과 빨간 점으로 표시되어 있습니다.

기상관측소 명을 보려면 표시 위로 마우스를 이동하세요.

날씨 관측과 예보를 보려면 클릭하세요.

지도 변경 : 확대하려면 엑스 표시가 있는 녹색 버튼, 축소하려면 빼기 표시가 있는 녹색 버튼, 다음 페이지의 지도를 보려면 녹색 화살표를 클릭하세요.


METAR-TAF: